createdAt,value
2019-05-13T00:01:31.262Z,22.36
2019-05-13T00:06:39.099Z,22.34
2019-05-13T00:11:40.582Z,22.34
2019-05-13T00:16:44.965Z,22.34
2019-05-13T00:21:48.830Z,22.34
2019-05-13T00:26:53.183Z,22.35
2019-05-13T00:31:57.170Z,22.35
2019-05-13T00:37:08.969Z,22.35
2019-05-13T00:42:06.492Z,22.38
2019-05-13T00:47:10.264Z,22.35
2019-05-13T00:52:14.403Z,22.35
2019-05-13T00:57:18.327Z,22.38
2019-05-13T01:02:24.212Z,22.32
2019-05-13T01:07:28.945Z,22.23
2019-05-13T01:12:34.505Z,22.31
2019-05-13T01:17:38.614Z,22.31
2019-05-13T01:22:44.091Z,22.32
2019-05-13T01:27:48.328Z,22.32
2019-05-13T01:32:53.985Z,22.31
2019-05-13T01:37:57.620Z,22.31
2019-05-13T01:43:03.561Z,22.26
2019-05-13T01:48:08.113Z,22.26
2019-05-13T01:53:14.029Z,22.24
2019-05-13T01:58:17.683Z,22.24
2019-05-13T02:03:21.549Z,22.21
2019-05-13T02:08:25.363Z,22.21
2019-05-13T02:13:29.295Z,22.18
2019-05-13T02:18:34.226Z,22.18
2019-05-13T02:23:38.161Z,22.14
2019-05-13T02:28:43.609Z,22.15
2019-05-13T02:33:47.531Z,22.17
2019-05-13T02:38:53.155Z,22.17
2019-05-13T02:43:56.880Z,22.14
2019-05-13T02:49:03.144Z,22.12
2019-05-13T02:54:06.448Z,22.12
2019-05-13T02:59:13.065Z,22.10
2019-05-13T03:04:15.799Z,22.07
2019-05-13T03:09:22.718Z,22.05
2019-05-13T03:14:25.294Z,22.04
2019-05-13T03:19:32.968Z,22.04
2019-05-13T03:24:34.740Z,22.02
2019-05-13T03:29:38.619Z,22.00
2019-05-13T03:34:45.583Z,21.88
2019-05-13T03:39:48.498Z,21.88
2019-05-13T03:44:52.639Z,21.84
2019-05-13T03:50:03.080Z,21.87
2019-05-13T03:55:05.285Z,21.93
2019-05-13T04:00:09.083Z,21.93
2019-05-13T04:05:14.640Z,21.68
2019-05-13T04:10:18.517Z,21.78
2019-05-13T04:15:23.474Z,21.74
2019-05-13T04:20:27.839Z,21.74
2019-05-13T04:25:32.296Z,21.71
2019-05-13T04:30:36.256Z,21.66
2019-05-13T04:35:42.582Z,21.70
2019-05-13T04:40:45.672Z,21.67
2019-05-13T04:45:52.488Z,21.63
2019-05-13T04:50:55.048Z,21.63
2019-05-13T04:56:02.795Z,21.60
2019-05-13T05:01:52.229Z,21.60
2019-05-13T05:07:33.905Z,21.58
2019-05-13T05:13:02.826Z,21.56
2019-05-13T05:18:23.495Z,21.54
2019-05-13T05:24:04.254Z,21.50
2019-05-13T05:29:51.607Z,21.50
2019-05-13T05:35:47.686Z,21.39
2019-05-13T05:40:51.695Z,21.17
2019-05-13T05:45:55.489Z,21.17
2019-05-13T05:51:01.986Z,21.12
2019-05-13T05:56:04.924Z,21.12
2019-05-13T06:01:08.728Z,21.11
2019-05-13T06:06:12.717Z,21.11
2019-05-13T06:11:16.637Z,21.09
2019-05-13T06:16:21.842Z,21.10
2019-05-13T06:21:25.757Z,21.12
2019-05-13T06:26:31.444Z,21.24
2019-05-13T06:31:35.167Z,21.24
2019-05-13T06:36:38.971Z,21.13
2019-05-13T06:41:42.751Z,21.22
2019-05-13T06:46:46.552Z,21.22
2019-05-13T06:51:52.450Z,21.21
2019-05-13T06:56:55.852Z,21.21
2019-05-13T07:02:02.225Z,21.18
2019-05-13T07:07:13.173Z,21.15
2019-05-13T07:12:11.353Z,21.13
2019-05-13T07:17:15.381Z,21.15
2019-05-13T07:22:22.705Z,21.15
2019-05-13T07:27:24.747Z,21.14
2019-05-13T07:32:28.536Z,21.14
2019-05-13T07:37:32.362Z,21.13
2019-05-13T07:42:36.166Z,21.09
2019-05-13T07:47:41.711Z,21.05
2019-05-13T07:52:45.755Z,21.06
2019-05-13T07:57:51.496Z,21.05
2019-05-13T08:02:55.187Z,21.04
2019-05-13T08:07:58.967Z,21.02
2019-05-13T08:13:02.747Z,20.85
2019-05-13T08:18:06.526Z,20.85
2019-05-13T08:23:11.853Z,17.29
2019-05-13T08:28:16.173Z,16.82
2019-05-13T08:33:22.480Z,16.82
2019-05-13T08:38:25.487Z,17.12
2019-05-13T08:43:31.447Z,16.87
2019-05-13T08:48:34.767Z,16.00
2019-05-13T08:53:38.545Z,16.32
2019-05-13T08:58:42.347Z,16.42
2019-05-13T09:03:46.263Z,15.64
2019-05-13T09:08:53.874Z,15.64
2019-05-13T09:13:55.568Z,15.89
2019-05-13T09:19:03.388Z,15.57
2019-05-13T09:29:12.026Z,17.63
2019-05-13T09:34:15.958Z,18.73
2019-05-13T09:39:21.674Z,19.44
2019-05-13T09:44:25.351Z,19.72
2019-05-13T09:49:29.150Z,19.72
2019-05-13T09:54:33.333Z,19.84
2019-05-13T09:59:37.210Z,19.97
2019-05-13T10:04:43.374Z,20.08
2019-05-13T10:09:48.465Z,20.14
2019-05-13T10:14:52.499Z,20.17
2019-05-13T10:19:56.283Z,20.23
2019-05-13T10:25:02.575Z,20.22
2019-05-13T10:30:07.236Z,20.22
2019-05-13T10:35:11.035Z,20.34
2019-05-13T10:40:14.911Z,20.17
2019-05-13T10:45:18.900Z,20.23
2019-05-13T10:50:27.526Z,20.29
2019-05-13T10:55:28.380Z,20.37
2019-05-13T11:00:44.126Z,20.33
2019-05-13T11:05:48.783Z,20.31
2019-05-13T11:10:53.315Z,20.41
2019-05-13T11:15:58.576Z,20.19
2019-05-13T11:21:02.667Z,20.20
2019-05-13T11:26:06.463Z,20.28
2019-05-13T11:31:10.392Z,20.28
2019-05-13T11:36:18.896Z,20.39
2019-05-13T11:41:22.597Z,20.58
2019-05-13T11:46:25.305Z,20.56
2019-05-13T11:51:31.434Z,20.61
2019-05-13T11:56:34.692Z,20.62
2019-05-13T12:01:38.452Z,20.51
2019-05-13T12:06:47.920Z,20.49
2019-05-13T12:11:47.761Z,20.49
2019-05-13T12:16:51.543Z,20.63
2019-05-13T12:21:55.497Z,20.56
2019-05-13T12:26:59.296Z,20.68
2019-05-13T12:32:03.484Z,20.68
2019-05-13T12:37:07.436Z,20.66
2019-05-13T12:42:12.700Z,20.67
2019-05-13T12:47:16.754Z,19.27
2019-05-13T12:52:22.943Z,19.74
2019-05-13T12:57:26.067Z,19.74
2019-05-13T13:07:41.378Z,20.47
2019-05-13T13:12:42.121Z,20.46
2019-05-13T13:17:46.187Z,20.65
2019-05-13T13:22:50.112Z,20.80
2019-05-13T13:28:10.728Z,20.80
2019-05-13T13:33:02.069Z,20.97
2019-05-13T13:38:05.026Z,20.87
2019-05-13T13:43:11.593Z,20.74
2019-05-13T13:48:14.308Z,20.91
2019-05-13T13:53:18.227Z,20.92
2019-05-13T13:58:25.471Z,20.85
2019-05-13T14:03:27.877Z,20.96
2019-05-13T14:06:25.160Z,15.57
2019-05-13T14:06:35.511Z,20.38
2019-05-13T14:08:31.640Z,20.96
2019-05-13T14:13:35.470Z,20.97
2019-05-13T14:18:41.727Z,20.97
2019-05-13T14:23:44.764Z,20.97
2019-05-13T14:28:48.624Z,20.99
2019-05-13T14:33:52.424Z,21.04
2019-05-13T14:38:56.207Z,21.04
2019-05-13T14:44:00.046Z,21.02
2019-05-13T14:49:03.885Z,21.41
2019-05-13T14:54:07.721Z,21.34
2019-05-13T14:59:11.911Z,21.30
2019-05-13T15:04:16.124Z,21.32
2019-05-13T15:09:20.159Z,21.32
2019-05-13T15:14:25.404Z,21.29
2019-05-13T15:19:31.572Z,21.43
2019-05-13T15:24:34.722Z,21.71
2019-05-13T15:29:38.618Z,21.71
2019-05-13T15:34:42.591Z,21.48
2019-05-13T15:39:46.453Z,21.55
2019-05-13T15:44:52.529Z,21.55
2019-05-13T15:49:55.838Z,21.59
2019-05-13T15:55:01.476Z,21.65
2019-05-13T16:00:06.949Z,21.65
2019-05-13T16:05:11.954Z,21.89
2019-05-13T16:10:16.105Z,21.98
2019-05-13T16:15:21.727Z,21.98
2019-05-13T16:20:25.506Z,22.13
2019-05-13T16:25:31.806Z,22.34
2019-05-13T16:30:35.023Z,22.40
2019-05-13T16:35:38.830Z,22.47
2019-05-13T16:40:42.708Z,22.47
2019-05-13T16:45:46.496Z,22.38
2019-05-13T16:50:50.383Z,22.39
2019-05-13T16:55:54.239Z,22.50
2019-05-13T17:00:58.050Z,22.59
2019-05-13T17:06:02.351Z,22.59
2019-05-13T17:11:06.412Z,22.72
2019-05-13T17:16:10.202Z,22.77
2019-05-13T17:21:13.981Z,22.75
2019-05-13T17:26:17.754Z,22.79
2019-05-13T17:31:21.925Z,22.72
2019-05-13T17:36:25.856Z,22.60
2019-05-13T17:41:31.943Z,22.51
2019-05-13T17:46:35.261Z,22.47
2019-05-13T17:51:39.062Z,22.39
2019-05-13T17:56:43.645Z,22.49
2019-05-13T18:01:47.541Z,22.46
2019-05-13T18:06:52.314Z,22.43
2019-05-13T18:11:56.352Z,22.44
2019-05-13T18:17:02.174Z,22.33
2019-05-13T18:22:05.723Z,22.26
2019-05-13T18:27:12.106Z,22.26
2019-05-13T18:32:15.182Z,22.13
2019-05-13T18:37:19.046Z,22.36
2019-05-13T18:42:22.866Z,22.13
2019-05-13T18:47:26.638Z,22.13
2019-05-13T18:52:31.379Z,22.06
2019-05-13T18:57:35.333Z,22.04
2019-05-13T19:02:41.306Z,22.04
2019-05-13T19:07:44.677Z,22.05
2019-05-13T19:12:48.456Z,22.00
2019-05-13T19:17:52.424Z,22.00
2019-05-13T19:22:56.230Z,21.98
2019-05-13T19:28:02.214Z,21.96
2019-05-13T19:33:05.527Z,21.96
2019-05-13T19:38:11.919Z,21.96
2019-05-13T19:43:14.874Z,22.00
2019-05-13T19:48:18.738Z,22.00
2019-05-13T19:53:22.599Z,22.02
2019-05-13T19:58:26.421Z,22.02
2019-05-13T20:03:31.797Z,22.06
2019-05-13T20:08:35.809Z,22.05
2019-05-13T20:13:41.603Z,22.05
2019-05-13T20:18:45.161Z,22.07
2019-05-13T20:23:48.930Z,22.07
2019-05-13T20:28:52.808Z,22.07
2019-05-13T20:33:56.843Z,22.05
2019-05-13T20:39:02.096Z,22.06
2019-05-13T20:44:06.139Z,22.06
2019-05-13T20:49:11.986Z,22.04
2019-05-13T20:54:15.616Z,22.02
2019-05-13T20:59:21.593Z,22.05
2019-05-13T21:04:25.036Z,22.05
2019-05-13T21:09:28.818Z,22.05
2019-05-13T21:14:32.609Z,22.03
2019-05-13T21:19:39.601Z,22.04
2019-05-13T21:24:42.136Z,22.02
2019-05-13T21:29:45.898Z,22.08
2019-05-13T21:34:51.605Z,22.02
2019-05-13T21:39:55.263Z,22.03
2019-05-13T21:44:59.094Z,22.03
2019-05-13T21:50:03.168Z,22.07
2019-05-13T21:55:07.055Z,22.06
2019-05-13T22:00:14.315Z,22.07
2019-05-13T22:05:18.117Z,22.07
2019-05-13T22:10:21.951Z,22.05
2019-05-13T22:15:25.883Z,22.05
2019-05-13T22:20:31.723Z,22.02
2019-05-13T22:25:35.209Z,22.05
2019-05-13T22:30:40.745Z,22.05
2019-05-13T22:35:44.670Z,22.03
2019-05-13T22:40:48.595Z,22.03
2019-05-13T22:45:52.455Z,22.01
2019-05-13T22:50:56.278Z,22.01
2019-05-13T22:56:00.046Z,22.00
2019-05-13T23:01:04.002Z,22.00
2019-05-13T23:06:07.948Z,22.01
2019-05-13T23:11:13.211Z,22.01
2019-05-13T23:16:16.983Z,22.04
2019-05-13T23:21:20.826Z,22.04
2019-05-13T23:26:24.609Z,21.99
2019-05-13T23:31:28.392Z,21.99
2019-05-13T23:36:32.160Z,22.01
2019-05-13T23:41:36.110Z,21.98
2019-05-13T23:46:41.906Z,22.00
2019-05-13T23:51:45.498Z,21.99
2019-05-13T23:56:49.266Z,21.99
